Time;durP1;ratioP1;P1;durP2;ratioP2;P2;SDS_P1;SDS_P2;PMS_P1;PMS_P2;Temp;Humidity;BMP_temperature;BMP_pressure;BME280_temperature;BME280_humidity;BME280_pressure;Samples;Min_cycle;Max_cycle;Signal;HPM_P1;HPM_P2
2023/03/10 00:01:27;;;;;;;40.08;36.15;;;;;;;;;;4908045;28;10000676;-64
2023/03/10 00:06:40;;;;;;;41.22;37.33;;;;;;;;;;5035778;28;20115;-58
2023/03/10 00:09:07;;;;;;;40.47;36.47;;;;;;;;;;5036713;28;20018;-58
2023/03/10 00:11:33;;;;;;;41.65;37.67;;;;;;;;;;5028085;28;20510;-55
2023/03/10 00:13:59;;;;;;;40.17;36.15;;;;;;;;;;5044336;28;20025;-57
2023/03/10 00:16:27;;;;;;;42.72;38.05;;;;;;;;;;5029221;28;20025;-58
2023/03/10 00:18:53;;;;;;;40.93;37.10;;;;;;;;;;5028223;28;20026;-59
2023/03/10 00:21:23;;;;;;;42.10;37.83;;;;;;;;;;5033864;28;20028;-56
2023/03/10 00:23:50;;;;;;;41.78;37.78;;;;;;;;;;5029451;28;20075;-57
2023/03/10 00:26:17;;;;;;;42.50;38.53;;;;;;;;;;5029454;28;20040;-59
2023/03/10 00:28:43;;;;;;;42.15;37.75;;;;;;;;;;5029815;28;20014;-56
2023/03/10 00:31:13;;;;;;;42.00;38.03;;;;;;;;;;5029931;28;20053;-54
2023/03/10 00:33:40;;;;;;;42.53;38.35;;;;;;;;;;5030760;28;20100;-52
2023/03/10 00:36:10;;;;;;;42.05;37.85;;;;;;;;;;5029673;28;20029;-53
2023/03/10 00:38:37;;;;;;;41.25;37.22;;;;;;;;;;5029389;28;20044;-58
2023/03/10 00:41:05;;;;;;;41.97;37.97;;;;;;;;;;5030862;28;20026;-57
2023/03/10 00:43:31;;;;;;;41.03;37.15;;;;;;;;;;5030544;28;20029;-56
2023/03/10 00:45:57;;;;;;;39.38;35.55;;;;;;;;;;5031275;28;20033;-59
2023/03/10 00:48:24;;;;;;;42.13;38.15;;;;;;;;;;5032903;28;20087;-59
2023/03/10 00:50:50;;;;;;;41.55;37.45;;;;;;;;;;5034387;28;20025;-59
2023/03/10 00:53:16;;;;;;;41.88;37.85;;;;;;;;;;5033914;28;20021;-58
2023/03/10 00:55:42;;;;;;;40.75;36.92;;;;;;;;;;5034103;28;20060;-54
2023/03/10 00:58:08;;;;;;;40.38;36.58;;;;;;;;;;5034238;28;20502;-56
2023/03/10 01:00:34;;;;;;;42.95;38.50;;;;;;;;;;5034157;28;20108;-54
2023/03/10 01:03:00;;;;;;;40.72;36.75;;;;;;;;;;5034196;28;20036;-59
2023/03/10 01:05:27;;;;;;;41.85;37.90;;;;;;;;;;5033704;28;20497;-58
2023/03/10 01:07:54;;;;;;;41.65;37.55;;;;;;;;;;5033935;28;20109;-58
2023/03/10 01:10:20;;;;;;;43.10;39.08;;;;;;;;;;5033937;28;20025;-57
2023/03/10 01:12:46;;;;;;;43.58;39.40;;;;;;;;;;5033837;28;20033;-58
2023/03/10 01:15:12;;;;;;;46.08;41.88;;;;;;;;;;5032327;28;20026;-58
2023/03/10 01:17:38;;;;;;;46.03;41.60;;;;;;;;;;5033767;28;20033;-58
2023/03/10 01:20:08;;;;;;;45.95;41.67;;;;;;;;;;5033637;28;20021;-57
2023/03/10 01:22:35;;;;;;;47.65;43.20;;;;;;;;;;5032233;28;20107;-58
2023/03/10 01:25:01;;;;;;;46.50;42.13;;;;;;;;;;5033321;28;20025;-57
2023/03/10 01:27:27;;;;;;;45.17;40.92;;;;;;;;;;5033514;28;20030;-59
2023/03/10 01:29:53;;;;;;;46.30;41.90;;;;;;;;;;5033117;28;20026;-58
2023/03/10 01:32:19;;;;;;;47.17;42.85;;;;;;;;;;5033455;28;20071;-59
2023/03/10 01:34:45;;;;;;;46.13;41.80;;;;;;;;;;5031949;28;20104;-58
2023/03/10 01:37:11;;;;;;;47.72;43.42;;;;;;;;;;5033596;28;20107;-58
2023/03/10 01:39:37;;;;;;;47.50;43.10;;;;;;;;;;5033537;28;20029;-57
2023/03/10 01:42:03;;;;;;;46.67;42.45;;;;;;;;;;5032031;28;20030;-57
2023/03/10 01:44:29;;;;;;;46.75;42.38;;;;;;;;;;5031739;28;20485;-57
2023/03/10 01:46:57;;;;;;;48.60;43.90;;;;;;;;;;5033274;28;20025;-55
2023/03/10 01:49:29;;;;;;;47.25;42.95;;;;;;;;;;5033239;28;20022;-56
2023/03/10 01:52:01;;;;;;;47.15;43.05;;;;;;;;;;5033315;28;20021;-57
2023/03/10 01:54:35;;;;;;;47.65;43.38;;;;;;;;;;5032846;28;20389;-56
2023/03/10 01:57:02;;;;;;;47.00;42.78;;;;;;;;;;5033067;28;20017;-56
2023/03/10 01:59:28;;;;;;;48.97;44.20;;;;;;;;;;5030841;28;20029;-59
2023/03/10 02:01:54;;;;;;;49.28;44.83;;;;;;;;;;5035212;28;20033;-57
2023/03/10 02:04:34;;;;;;;48.13;43.70;;;;;;;;;;5034359;28;20033;-58
2023/03/10 02:07:01;;;;;;;45.60;41.45;;;;;;;;;;5041468;28;20029;-58
2023/03/10 02:09:28;;;;;;;47.58;42.83;;;;;;;;;;5032913;28;20021;-56
2023/03/10 02:11:54;;;;;;;42.97;38.97;;;;;;;;;;5031762;28;20025;-56
2023/03/10 02:14:20;;;;;;;36.97;33.42;;;;;;;;;;5031478;28;20022;-57
2023/03/10 02:16:46;;;;;;;31.73;28.77;;;;;;;;;;5031680;28;20024;-57
2023/03/10 02:19:21;;;;;;;28.63;26.02;;;;;;;;;;5032791;28;20423;-57
2023/03/10 02:21:53;;;;;;;32.33;29.52;;;;;;;;;;5035614;28;20037;-58
2023/03/10 02:24:26;;;;;;;30.50;27.88;;;;;;;;;;5031217;28;20021;-57
2023/03/10 02:26:55;;;;;;;33.38;30.48;;;;;;;;;;5032977;28;20080;-57
2023/03/10 02:29:42;;;;;;;31.52;28.83;;;;;;;;;;5032725;28;20018;-54
2023/03/10 02:32:09;;;;;;;30.02;27.35;;;;;;;;;;5032532;28;20029;-59
2023/03/10 02:34:35;;;;;;;32.17;29.42;;;;;;;;;;5032283;28;20482;-55
2023/03/10 02:37:01;;;;;;;31.88;29.10;;;;;;;;;;5031565;28;20037;-56
2023/03/10 02:39:27;;;;;;;30.70;28.00;;;;;;;;;;5032257;28;20497;-53
2023/03/10 02:41:53;;;;;;;31.90;28.90;;;;;;;;;;5032301;28;20079;-58
2023/03/10 02:44:20;;;;;;;33.35;30.45;;;;;;;;;;5030699;28;20025;-54
2023/03/10 02:46:46;;;;;;;31.45;28.65;;;;;;;;;;5030827;28;20022;-58
2023/03/10 02:49:12;;;;;;;32.42;29.63;;;;;;;;;;5032046;28;20022;-57
2023/03/10 02:51:40;;;;;;;37.55;34.45;;;;;;;;;;5030889;28;20017;-53
2023/03/10 02:54:07;;;;;;;37.00;33.90;;;;;;;;;;5031789;28;20390;-57
2023/03/10 02:56:33;;;;;;;36.88;33.88;;;;;;;;;;5032105;28;20088;-56
2023/03/10 02:59:00;;;;;;;37.55;34.50;;;;;;;;;;5032006;28;20026;-59
2023/03/10 03:01:28;;;;;;;37.50;34.40;;;;;;;;;;5031916;28;20108;-55
2023/03/10 03:03:54;;;;;;;36.78;33.67;;;;;;;;;;5031534;28;20029;-56
2023/03/10 03:06:20;;;;;;;37.60;34.40;;;;;;;;;;5030150;28;20513;-56
2023/03/10 03:08:47;;;;;;;37.55;34.45;;;;;;;;;;5030298;28;20104;-51
2023/03/10 03:11:13;;;;;;;38.20;35.00;;;;;;;;;;5031242;28;20144;-53
2023/03/10 03:13:39;;;;;;;39.28;35.90;;;;;;;;;;5030157;28;20025;-53
2023/03/10 03:16:06;;;;;;;39.53;36.22;;;;;;;;;;5030312;28;20079;-54
2023/03/10 03:18:32;;;;;;;38.35;35.15;;;;;;;;;;5030360;28;20120;-54
2023/03/10 03:20:58;;;;;;;38.40;35.15;;;;;;;;;;5031573;28;20056;-56
2023/03/10 03:23:24;;;;;;;38.72;35.53;;;;;;;;;;5031349;28;20033;-58
2023/03/10 03:25:50;;;;;;;38.80;35.60;;;;;;;;;;5030068;28;20029;-56
2023/03/10 03:28:16;;;;;;;40.47;37.08;;;;;;;;;;5031637;28;20048;-60
2023/03/10 03:30:43;;;;;;;39.85;36.58;;;;;;;;;;5031552;28;20053;-58
2023/03/10 03:33:09;;;;;;;39.78;36.58;;;;;;;;;;5031292;28;20029;-56
2023/03/10 03:35:36;;;;;;;40.53;37.22;;;;;;;;;;5031439;28;20106;-58
2023/03/10 03:38:03;;;;;;;40.45;37.13;;;;;;;;;;5031324;28;20104;-59
2023/03/10 03:40:30;;;;;;;39.67;36.38;;;;;;;;;;5030157;28;20091;-57
2023/03/10 03:42:56;;;;;;;37.33;34.22;;;;;;;;;;5031355;28;20034;-55
2023/03/10 03:45:23;;;;;;;37.88;34.67;;;;;;;;;;5029982;28;20120;-55
2023/03/10 03:47:50;;;;;;;39.13;35.72;;;;;;;;;;5030587;28;20029;-57
2023/03/10 03:50:17;;;;;;;37.47;34.38;;;;;;;;;;5031310;28;20151;-57
2023/03/10 03:52:44;;;;;;;39.05;35.75;;;;;;;;;;5031251;28;20025;-57
2023/03/10 03:55:10;;;;;;;39.25;35.95;;;;;;;;;;5031147;28;20390;-59
2023/03/10 03:57:36;;;;;;;38.85;35.58;;;;;;;;;;5031162;28;20034;-58
2023/03/10 04:00:07;;;;;;;39.17;35.88;;;;;;;;;;5031095;28;20037;-58
2023/03/10 04:02:34;;;;;;;39.60;36.33;;;;;;;;;;5030038;28;20026;-58
2023/03/10 04:05:00;;;;;;;39.67;36.38;;;;;;;;;;5030804;28;20049;-58
2023/03/10 04:07:26;;;;;;;40.47;37.08;;;;;;;;;;5029888;28;20025;-56
2023/03/10 04:09:52;;;;;;;39.95;36.72;;;;;;;;;;5031101;28;20430;-57
2023/03/10 04:12:18;;;;;;;40.25;36.92;;;;;;;;;;5031218;28;20025;-58
2023/03/10 04:14:44;;;;;;;40.90;37.47;;;;;;;;;;5030698;28;20037;-60
2023/03/10 04:17:10;;;;;;;40.35;36.85;;;;;;;;;;5030936;28;20057;-57
2023/03/10 04:19:36;;;;;;;40.28;36.80;;;;;;;;;;5030988;28;20026;-59
2023/03/10 04:22:02;;;;;;;39.47;36.05;;;;;;;;;;5032386;28;20512;-61
2023/03/10 04:24:28;;;;;;;37.92;34.65;;;;;;;;;;5034536;28;20018;-58
2023/03/10 04:26:54;;;;;;;38.33;35.13;;;;;;;;;;5034535;28;20038;-59
2023/03/10 04:29:23;;;;;;;39.00;35.67;;;;;;;;;;5033279;28;20035;-58
2023/03/10 04:31:49;;;;;;;37.28;33.97;;;;;;;;;;5034582;28;20045;-57
2023/03/10 04:34:15;;;;;;;39.25;35.83;;;;;;;;;;5034025;28;20028;-58
2023/03/10 04:36:41;;;;;;;39.47;35.88;;;;;;;;;;5033166;28;20032;-58
2023/03/10 04:39:08;;;;;;;39.30;35.90;;;;;;;;;;5034534;28;20021;-57
2023/03/10 04:41:35;;;;;;;38.85;35.47;;;;;;;;;;5034445;28;20022;-55
2023/03/10 04:44:01;;;;;;;37.92;34.63;;;;;;;;;;5034134;28;20171;-56
2023/03/10 04:46:27;;;;;;;39.00;35.65;;;;;;;;;;5034239;28;20026;-59
2023/03/10 04:48:54;;;;;;;38.45;35.05;;;;;;;;;;5034207;28;20021;-60
2023/03/10 04:51:20;;;;;;;38.72;35.33;;;;;;;;;;5034539;28;20393;-55
2023/03/10 04:53:46;;;;;;;38.33;34.97;;;;;;;;;;5034038;28;20025;-56
2023/03/10 04:56:12;;;;;;;37.55;34.25;;;;;;;;;;5032781;28;20029;-56
2023/03/10 04:58:38;;;;;;;38.40;35.20;;;;;;;;;;5034378;28;20437;-58
2023/03/10 05:01:09;;;;;;;38.22;34.92;;;;;;;;;;5034169;28;20029;-57
2023/03/10 05:03:35;;;;;;;37.55;34.35;;;;;;;;;;5033810;28;20358;-58
2023/03/10 05:06:01;;;;;;;38.00;34.72;;;;;;;;;;5033901;28;20060;-54
2023/03/10 05:08:27;;;;;;;38.17;34.83;;;;;;;;;;5034333;28;20532;-58
2023/03/10 05:10:53;;;;;;;38.20;34.90;;;;;;;;;;5033810;28;20155;-56
2023/03/10 05:13:19;;;;;;;38.42;35.03;;;;;;;;;;5032730;28;20113;-56
2023/03/10 05:15:45;;;;;;;36.55;33.35;;;;;;;;;;5033907;28;20457;-55
2023/03/10 05:18:11;;;;;;;36.78;33.47;;;;;;;;;;5033795;28;20445;-59
2023/03/10 05:20:37;;;;;;;37.33;33.92;;;;;;;;;;5032516;28;20053;-59
2023/03/10 05:23:03;;;;;;;36.72;33.53;;;;;;;;;;5032137;28;20022;-58
2023/03/10 05:25:29;;;;;;;37.83;34.38;;;;;;;;;;5033396;28;20029;-60
2023/03/10 05:27:55;;;;;;;37.28;33.78;;;;;;;;;;5033619;28;20466;-59
2023/03/10 05:30:22;;;;;;;36.72;33.40;;;;;;;;;;5032305;28;20029;-61
2023/03/10 05:32:48;;;;;;;38.80;35.03;;;;;;;;;;5032736;28;20026;-58
2023/03/10 05:35:14;;;;;;;37.70;34.15;;;;;;;;;;5031819;28;20049;-56
2023/03/10 05:37:41;;;;;;;37.85;34.30;;;;;;;;;;5033428;28;20481;-58
2023/03/10 05:40:08;;;;;;;36.53;33.03;;;;;;;;;;5033260;28;20104;-58
2023/03/10 05:42:34;;;;;;;37.45;33.85;;;;;;;;;;5031789;28;20026;-60
2023/03/10 05:45:00;;;;;;;36.92;33.33;;;;;;;;;;5033230;28;20030;-56
2023/03/10 05:47:26;;;;;;;37.80;33.92;;;;;;;;;;5031939;28;20367;-57
2023/03/10 05:49:52;;;;;;;37.45;33.75;;;;;;;;;;5031621;28;20075;-54
2023/03/10 05:52:18;;;;;;;35.75;32.42;;;;;;;;;;5031814;28;20017;-57
2023/03/10 05:54:44;;;;;;;36.90;33.50;;;;;;;;;;5032651;28;20490;-58
2023/03/10 05:57:10;;;;;;;37.22;33.53;;;;;;;;;;5031821;28;20029;-58
2023/03/10 05:59:36;;;;;;;36.38;32.80;;;;;;;;;;5032671;28;20022;-59
2023/03/10 06:02:02;;;;;;;36.50;33.20;;;;;;;;;;5032718;28;20033;-59
2023/03/10 06:04:31;;;;;;;36.90;33.50;;;;;;;;;;5032257;28;20052;-55
2023/03/10 06:06:59;;;;;;;;;;;;;;;;;;5081772;22;20044;-66
2023/03/10 06:09:25;;;;;;;38.13;34.42;;;;;;;;;;5073336;28;19908;-65
2023/03/10 06:11:51;;;;;;;36.45;32.95;;;;;;;;;;5073129;28;20028;-64
2023/03/10 06:14:17;;;;;;;36.95;33.45;;;;;;;;;;5073116;28;20020;-66
2023/03/10 06:16:49;;;;;;;35.38;32.08;;;;;;;;;;5073471;28;20024;-66
2023/03/10 06:19:15;;;;;;;34.50;31.17;;;;;;;;;;5091465;28;20107;-67
2023/03/10 06:21:41;;;;;;;35.50;32.10;;;;;;;;;;5091556;28;20119;-66
2023/03/10 06:24:07;;;;;;;34.42;31.25;;;;;;;;;;5091253;28;20476;-65
2023/03/10 06:26:34;;;;;;;36.42;33.00;;;;;;;;;;5091693;28;20479;-67
2023/03/10 06:28:59;;;;;;;35.58;32.28;;;;;;;;;;5082728;28;20036;-66
2023/03/10 06:31:26;;;;;;;36.05;32.47;;;;;;;;;;5073255;28;20031;-62
2023/03/10 06:33:52;;;;;;;35.40;31.83;;;;;;;;;;5091155;28;20028;-65
2023/03/10 06:36:19;;;;;;;35.90;32.47;;;;;;;;;;5091487;28;20043;-66
2023/03/10 06:38:45;;;;;;;35.50;32.20;;;;;;;;;;5091600;28;20039;-63
2023/03/10 06:41:11;;;;;;;36.30;32.60;;;;;;;;;;5091439;28;20039;-65
2023/03/10 06:43:37;;;;;;;36.22;32.63;;;;;;;;;;5090800;28;20398;-66
2023/03/10 06:46:07;;;;;;;35.10;31.60;;;;;;;;;;5073221;28;20389;-64
2023/03/10 06:48:33;;;;;;;36.42;33.00;;;;;;;;;;5091074;28;20410;-63
2023/03/10 06:50:59;;;;;;;36.03;32.33;;;;;;;;;;5091168;28;20054;-65
2023/03/10 06:53:28;;;;;;;35.88;32.30;;;;;;;;;;5091386;28;20027;-67
2023/03/10 06:56:02;;;;;;;36.90;33.30;;;;;;;;;;5090926;28;20020;-65
2023/03/10 06:58:28;;;;;;;36.10;32.45;;;;;;;;;;5091014;28;20156;-65
2023/03/10 07:00:54;;;;;;;35.05;31.63;;;;;;;;;;5091002;28;20024;-68
2023/03/10 07:03:20;;;;;;;36.47;32.88;;;;;;;;;;5091459;28;20036;-65
2023/03/10 07:05:47;;;;;;;34.33;31.08;;;;;;;;;;5072118;28;20085;-65
2023/03/10 07:08:13;;;;;;;36.13;32.42;;;;;;;;;;5091119;28;20098;-69
2023/03/10 07:10:39;;;;;;;36.15;32.45;;;;;;;;;;5091459;28;20044;-68
2023/03/10 07:13:05;;;;;;;35.28;31.77;;;;;;;;;;5090449;28;20043;-69
2023/03/10 07:15:31;;;;;;;35.88;32.28;;;;;;;;;;5072591;28;20020;-71
2023/03/10 07:17:57;;;;;;;34.88;31.30;;;;;;;;;;5072380;28;20035;-68
2023/03/10 07:20:23;;;;;;;34.83;31.35;;;;;;;;;;5072554;28;20081;-67
2023/03/10 07:22:50;;;;;;;34.33;31.00;;;;;;;;;;5090802;28;20328;-69
2023/03/10 07:25:16;;;;;;;34.53;31.13;;;;;;;;;;5089969;28;20027;-67
2023/03/10 07:27:42;;;;;;;35.55;32.15;;;;;;;;;;5090108;28;20157;-66
2023/03/10 07:30:08;;;;;;;34.95;31.52;;;;;;;;;;5090468;28;20471;-66
2023/03/10 07:32:34;;;;;;;34.58;31.27;;;;;;;;;;5090740;28;20103;-66
2023/03/10 07:35:01;;;;;;;35.47;31.83;;;;;;;;;;5089938;28;20084;-66
2023/03/10 07:37:27;;;;;;;34.55;31.20;;;;;;;;;;5090276;28;20032;-68
2023/03/10 07:39:54;;;;;;;35.75;32.10;;;;;;;;;;5090201;28;20031;-66
2023/03/10 07:42:20;;;;;;;34.08;30.88;;;;;;;;;;5072219;28;20357;-67
2023/03/10 07:44:46;;;;;;;33.90;30.60;;;;;;;;;;5090171;28;20077;-67
2023/03/10 07:47:12;;;;;;;33.65;30.30;;;;;;;;;;5090129;28;20036;-67
2023/03/10 07:49:38;;;;;;;35.20;31.70;;;;;;;;;;5090293;28;20020;-65
2023/03/10 07:52:04;;;;;;;34.90;31.45;;;;;;;;;;5072357;28;20027;-68
2023/03/10 07:54:30;;;;;;;35.35;31.90;;;;;;;;;;5090401;28;20024;-66
2023/03/10 07:56:56;;;;;;;35.53;31.95;;;;;;;;;;5075086;28;20484;-67
2023/03/10 07:59:22;;;;;;;34.72;31.30;;;;;;;;;;5076542;28;20027;-66
2023/03/10 08:01:48;;;;;;;35.88;32.42;;;;;;;;;;5094788;28;20051;-66
2023/03/10 08:04:15;;;;;;;34.92;31.33;;;;;;;;;;5094419;28;20024;-67
2023/03/10 08:06:41;;;;;;;36.45;32.72;;;;;;;;;;5076559;28;20488;-66
2023/03/10 08:09:07;;;;;;;34.30;30.88;;;;;;;;;;5094550;28;20027;-67
2023/03/10 08:11:33;;;;;;;35.33;31.75;;;;;;;;;;5095234;28;20024;-66
2023/03/10 08:13:59;;;;;;;34.80;31.42;;;;;;;;;;5094596;28;20484;-66
2023/03/10 08:16:25;;;;;;;35.75;32.28;;;;;;;;;;5094812;28;20469;-68
2023/03/10 08:18:53;;;;;;;34.88;31.58;;;;;;;;;;5095121;28;20032;-69
2023/03/10 08:21:19;;;;;;;41.07;36.87;;;;;;;;;;5094635;28;20024;-66
2023/03/10 08:23:45;;;;;;;33.45;30.25;;;;;;;;;;5093873;28;20020;-66
2023/03/10 08:26:16;;;;;;;33.67;30.38;;;;;;;;;;5094567;28;20044;-65
2023/03/10 08:28:42;;;;;;;37.25;33.65;;;;;;;;;;5094491;28;20019;-69
2023/03/10 08:31:14;;;;;;;40.72;36.10;;;;;;;;;;5077720;28;20361;-68
2023/03/10 08:33:40;;;;;;;36.20;32.65;;;;;;;;;;5094739;28;20058;-66
2023/03/10 08:36:06;;;;;;;34.80;31.50;;;;;;;;;;5095250;28;20031;-69
2023/03/10 08:38:32;;;;;;;35.17;31.88;;;;;;;;;;5095518;28;20027;-67
2023/03/10 08:41:07;;;;;;;35.65;32.15;;;;;;;;;;5094121;28;20032;-68
2023/03/10 08:43:33;;;;;;;34.45;31.27;;;;;;;;;;5093177;28;20034;-63
2023/03/10 08:45:59;;;;;;;34.47;31.30;;;;;;;;;;5092983;28;20047;-61
2023/03/10 08:48:25;;;;;;;33.33;30.33;;;;;;;;;;5093009;28;20468;-63
2023/03/10 08:50:51;;;;;;;34.25;31.20;;;;;;;;;;5093057;28;20020;-62
2023/03/10 08:53:17;;;;;;;35.22;31.83;;;;;;;;;;5092894;28;20435;-61
2023/03/10 08:55:43;;;;;;;36.30;32.90;;;;;;;;;;5093026;28;20020;-63
2023/03/10 08:58:09;;;;;;;35.47;31.95;;;;;;;;;;5092852;28;20020;-61
2023/03/10 09:00:35;;;;;;;34.72;31.42;;;;;;;;;;5072456;28;20024;-61
2023/03/10 09:03:01;;;;;;;33.58;30.55;;;;;;;;;;5092647;28;20046;-60
2023/03/10 09:05:27;;;;;;;33.35;30.25;;;;;;;;;;5089580;28;20016;-60
2023/03/10 09:07:54;;;;;;;34.30;31.00;;;;;;;;;;5091255;28;20095;-61
2023/03/10 09:10:20;;;;;;;33.08;29.98;;;;;;;;;;5092656;28;20069;-61
2023/03/10 09:12:46;;;;;;;34.20;31.05;;;;;;;;;;5092436;28;20016;-58
2023/03/10 09:15:12;;;;;;;37.10;33.60;;;;;;;;;;5071505;28;20415;-58
2023/03/10 09:17:38;;;;;;;32.92;29.83;;;;;;;;;;5092454;28;20103;-60
2023/03/10 09:20:05;;;;;;;33.72;30.52;;;;;;;;;;5073120;28;20074;-62
2023/03/10 09:22:31;;;;;;;33.63;30.58;;;;;;;;;;5090818;28;20016;-62
2023/03/10 09:24:57;;;;;;;34.05;30.85;;;;;;;;;;5090654;28;20458;-62
2023/03/10 09:27:23;;;;;;;34.38;31.10;;;;;;;;;;5090369;28;20024;-63
2023/03/10 09:29:49;;;;;;;35.58;32.05;;;;;;;;;;5090765;28;20166;-63
2023/03/10 09:32:15;;;;;;;37.40;33.92;;;;;;;;;;5090957;28;20020;-62
2023/03/10 09:34:41;;;;;;;35.47;32.17;;;;;;;;;;5072843;28;20439;-63
2023/03/10 09:37:07;;;;;;;36.30;32.80;;;;;;;;;;5092200;28;20032;-59
2023/03/10 09:39:33;;;;;;;35.88;32.50;;;;;;;;;;5074081;28;20031;-62
2023/03/10 09:41:59;;;;;;;36.13;32.72;;;;;;;;;;5092277;28;20376;-63
2023/03/10 09:44:25;;;;;;;35.42;32.13;;;;;;;;;;5092019;28;20024;-63
2023/03/10 09:46:51;;;;;;;35.38;31.98;;;;;;;;;;5092012;28;20567;-63
2023/03/10 09:49:20;;;;;;;34.22;31.13;;;;;;;;;;5091992;28;20028;-63
2023/03/10 09:51:48;;;;;;;36.65;33.08;;;;;;;;;;5093100;28;20047;-62
2023/03/10 09:54:39;;;;;;;36.37;33.27;;;;;;;;;;5095101;28;20028;-62
2023/03/10 09:57:13;;;;;;;34.63;31.52;;;;;;;;;;5083365;28;20040;-62
2023/03/10 09:59:40;;;;;;;35.25;32.10;;;;;;;;;;5095994;28;20046;-63
2023/03/10 10:02:16;;;;;;;34.90;31.63;;;;;;;;;;5095104;28;20073;-60
2023/03/10 10:04:42;;;;;;;34.58;31.38;;;;;;;;;;5094629;28;20036;-62
2023/03/10 10:07:15;;;;;;;32.47;29.40;;;;;;;;;;5093625;28;20377;-63
2023/03/10 10:09:47;;;;;;;33.63;30.52;;;;;;;;;;5092074;28;20138;-62
2023/03/10 10:12:14;;;;;;;35.05;31.75;;;;;;;;;;5091731;28;20426;-60
2023/03/10 10:14:40;;;;;;;33.72;30.63;;;;;;;;;;5091733;28;20023;-61
2023/03/10 10:17:09;;;;;;;34.25;30.98;;;;;;;;;;5091774;28;20028;-64
2023/03/10 10:19:38;;;;;;;34.72;31.60;;;;;;;;;;5091334;28;20028;-61
2023/03/10 10:22:15;;;;;;;34.28;31.08;;;;;;;;;;5091581;28;20499;-61
2023/03/10 10:24:41;;;;;;;34.00;30.90;;;;;;;;;;5091278;28;20082;-63
2023/03/10 10:27:07;;;;;;;32.90;30.08;;;;;;;;;;5091163;28;20024;-64
2023/03/10 10:29:35;;;;;;;31.98;29.23;;;;;;;;;;5091180;28;20020;-63
2023/03/10 10:32:01;;;;;;;32.63;29.83;;;;;;;;;;5091254;28;20043;-63
2023/03/10 10:34:27;;;;;;;32.30;29.40;;;;;;;;;;5091038;28;20074;-59
2023/03/10 10:36:55;;;;;;;31.85;28.80;;;;;;;;;;5091317;28;20024;-65
2023/03/10 10:39:36;;;;;;;30.53;27.83;;;;;;;;;;5091149;28;20099;-60
2023/03/10 10:42:12;;;;;;;29.90;27.20;;;;;;;;;;5070308;28;20020;-57
2023/03/10 10:44:43;;;;;;;29.98;27.38;;;;;;;;;;5082514;28;20024;-64
2023/03/10 10:47:38;;;;;;;29.55;26.98;;;;;;;;;;5088485;28;20101;-63
2023/03/10 10:50:22;;;;;;;29.42;26.85;;;;;;;;;;5052219;28;20052;-63
2023/03/10 10:52:51;;;;;;;29.23;26.52;;;;;;;;;;5089605;28;20031;-63
2023/03/10 10:55:26;;;;;;;29.10;26.52;;;;;;;;;;5064861;28;20017;-64
2023/03/10 10:57:53;;;;;;;28.63;26.13;;;;;;;;;;5082079;28;20040;-60
2023/03/10 11:00:30;;;;;;;28.42;25.77;;;;;;;;;;5082224;28;20138;-63
2023/03/10 11:02:56;;;;;;;28.75;26.25;;;;;;;;;;5077212;28;20024;-62
2023/03/10 11:05:24;;;;;;;27.67;25.17;;;;;;;;;;5078212;28;20021;-64
2023/03/10 11:07:51;;;;;;;27.73;25.23;;;;;;;;;;5080757;28;20017;-63
2023/03/10 11:10:20;;;;;;;28.05;25.55;;;;;;;;;;5080449;28;20100;-63
2023/03/10 11:12:46;;;;;;;27.58;25.17;;;;;;;;;;5087252;28;20089;-63
2023/03/10 11:15:23;;;;;;;26.83;24.52;;;;;;;;;;5071829;28;20435;-64
2023/03/10 11:17:49;;;;;;;30.10;27.40;;;;;;;;;;5083266;28;20020;-64
2023/03/10 11:20:33;;;;;;;28.48;25.98;;;;;;;;;;5080588;28;20024;-64
2023/03/10 11:23:02;;;;;;;29.63;26.98;;;;;;;;;;5070776;28;20483;-62
2023/03/10 11:25:29;;;;;;;28.40;25.80;;;;;;;;;;5087265;28;20016;-63
2023/03/10 11:27:58;;;;;;;28.50;26.00;;;;;;;;;;5090029;28;20058;-64
2023/03/10 11:30:37;;;;;;;28.77;26.17;;;;;;;;;;5089068;28;20023;-64
2023/03/10 11:33:02;;;;;;;;;;;;;;;;;;5089777;28;20044;-62
2023/03/10 11:35:32;;;;;;;27.70;25.20;;;;;;;;;;5089916;28;20371;-64
2023/03/10 11:38:10;;;;;;;27.13;24.52;;;;;;;;;;5090142;28;20027;-63
2023/03/10 11:40:36;;;;;;;28.20;25.60;;;;;;;;;;5087473;28;20024;-62
2023/03/10 11:43:13;;;;;;;27.75;25.15;;;;;;;;;;5089757;28;20084;-64
2023/03/10 11:45:47;;;;;;;26.33;23.83;;;;;;;;;;5087546;28;20035;-64
2023/03/10 11:48:13;;;;;;;25.67;23.38;;;;;;;;;;5089750;28;20440;-64
2023/03/10 11:50:58;;;;;;;24.63;22.42;;;;;;;;;;5071628;28;20046;-64
2023/03/10 11:53:26;;;;;;;24.45;22.15;;;;;;;;;;5089210;28;20384;-63
2023/03/10 11:55:53;;;;;;;24.50;22.20;;;;;;;;;;5089223;28;20023;-64
2023/03/10 11:58:36;;;;;;;23.90;21.50;;;;;;;;;;5089564;28;20043;-65
2023/03/10 12:01:02;;;;;;;23.70;21.40;;;;;;;;;;5089629;28;20411;-64
2023/03/10 12:03:40;;;;;;;23.70;21.30;;;;;;;;;;5077817;28;20039;-64
2023/03/10 12:06:08;;;;;;;23.35;21.15;;;;;;;;;;5087741;28;20028;-64
2023/03/10 12:08:35;;;;;;;23.10;20.80;;;;;;;;;;5071642;28;20031;-63
2023/03/10 12:11:03;;;;;;;23.00;20.77;;;;;;;;;;5089739;28;20095;-64
2023/03/10 12:13:52;;;;;;;22.90;20.80;;;;;;;;;;5089422;28;20030;-62
2023/03/10 12:16:21;;;;;;;22.95;20.75;;;;;;;;;;5078222;28;20115;-63
2023/03/10 12:18:47;;;;;;;23.20;20.88;;;;;;;;;;5088404;28;20024;-64
2023/03/10 12:21:13;;;;;;;23.40;20.98;;;;;;;;;;5089264;28;20017;-63
2023/03/10 12:23:41;;;;;;;24.23;22.02;;;;;;;;;;5070707;28;20107;-64
2023/03/10 12:26:07;;;;;;;24.58;22.17;;;;;;;;;;5089513;28;20131;-63
2023/03/10 12:28:33;;;;;;;24.20;22.00;;;;;;;;;;5068756;28;20074;-63
2023/03/10 12:31:31;;;;;;;25.13;22.83;;;;;;;;;;5110786;22;20043;-56
2023/03/10 12:34:15;;;;;;;25.50;23.10;;;;;;;;;;5108659;28;20024;-53
2023/03/10 12:36:44;;;;;;;26.98;24.25;;;;;;;;;;5109107;28;20028;-58
2023/03/10 12:39:25;;;;;;;27.40;24.60;;;;;;;;;;5109203;28;20476;-57
2023/03/10 12:41:52;;;;;;;25.55;23.17;;;;;;;;;;5090992;28;20036;-58
2023/03/10 12:44:21;;;;;;;28.20;25.48;;;;;;;;;;5093450;28;20034;-58
2023/03/10 12:46:55;;;;;;;26.30;23.90;;;;;;;;;;5093826;28;20028;-59
2023/03/10 12:49:34;;;;;;;26.75;23.90;;;;;;;;;;5095078;28;20016;-58
2023/03/10 12:52:09;;;;;;;25.15;22.83;;;;;;;;;;5092104;28;20460;-57
2023/03/10 12:54:41;;;;;;;25.13;22.58;;;;;;;;;;5093513;28;20032;-54
2023/03/10 12:57:13;;;;;;;25.65;23.10;;;;;;;;;;5094289;28;20115;-57
2023/03/10 12:59:41;;;;;;;24.98;22.27;;;;;;;;;;5093963;28;20040;-55
2023/03/10 13:02:29;;;;;;;24.35;21.70;;;;;;;;;;5088252;28;20028;-60
2023/03/10 13:05:00;;;;;;;24.88;22.38;;;;;;;;;;5093498;28;20020;-57
2023/03/10 13:07:27;;;;;;;24.42;22.02;;;;;;;;;;5094015;28;20081;-59
2023/03/10 13:09:54;;;;;;;25.50;22.90;;;;;;;;;;5076663;28;20109;-59
2023/03/10 13:12:23;;;;;;;24.60;22.17;;;;;;;;;;5073633;28;20028;-62
2023/03/10 13:14:56;;;;;;;27.08;24.15;;;;;;;;;;5073645;28;20020;-61
2023/03/10 13:17:27;;;;;;;25.90;23.35;;;;;;;;;;5073855;28;20421;-61
2023/03/10 13:20:00;;;;;;;27.73;24.23;;;;;;;;;;5073507;28;20028;-56
2023/03/10 13:22:27;;;;;;;27.30;24.70;;;;;;;;;;5073322;28;20020;-55
2023/03/10 13:25:01;;;;;;;28.45;25.55;;;;;;;;;;5073987;28;20477;-60
2023/03/10 13:27:29;;;;;;;29.27;26.40;;;;;;;;;;5073394;28;20032;-58
2023/03/10 13:29:57;;;;;;;29.63;26.40;;;;;;;;;;5074638;28;20027;-58
2023/03/10 13:32:24;;;;;;;47.38;43.38;;;;;;;;;;5087279;28;20027;-59
2023/03/10 13:34:50;;;;;;;49.35;45.15;;;;;;;;;;5092728;28;20440;-59
2023/03/10 13:37:16;;;;;;;50.08;45.97;;;;;;;;;;5093425;28;20036;-57
2023/03/10 13:39:42;;;;;;;50.58;46.55;;;;;;;;;;5074794;28;20032;-58
2023/03/10 13:42:37;;;;;;;51.40;47.30;;;;;;;;;;5092801;28;20086;-58
2023/03/10 13:45:12;;;;;;;50.10;46.00;;;;;;;;;;5067832;28;20036;-58
2023/03/10 13:47:41;;;;;;;51.15;47.10;;;;;;;;;;5074300;28;20031;-57
2023/03/10 13:50:13;;;;;;;50.92;46.72;;;;;;;;;;5073793;28;20016;-59
2023/03/10 13:52:50;;;;;;;55.35;50.83;;;;;;;;;;5084361;28;20089;-59
2023/03/10 13:55:17;;;;;;;55.08;50.47;;;;;;;;;;5091568;28;20055;-60
2023/03/10 13:57:43;;;;;;;54.25;49.83;;;;;;;;;;5092704;28;20068;-59
2023/03/10 14:00:14;;;;;;;52.78;48.47;;;;;;;;;;5092845;28;20048;-60
2023/03/10 14:02:43;;;;;;;51.60;47.65;;;;;;;;;;5092846;28;20027;-59
2023/03/10 14:05:29;;;;;;;53.05;48.80;;;;;;;;;;5092339;28;20039;-61
2023/03/10 14:07:59;;;;;;;51.85;47.65;;;;;;;;;;5074169;28;20400;-62
2023/03/10 14:10:25;;;;;;;49.22;45.47;;;;;;;;;;5074791;28;20023;-59
2023/03/10 14:12:53;;;;;;;49.63;45.75;;;;;;;;;;5092292;28;20177;-61
2023/03/10 14:15:19;;;;;;;49.35;45.47;;;;;;;;;;5073819;28;20115;-58
2023/03/10 14:18:03;;;;;;;50.05;45.95;;;;;;;;;;5092161;28;20520;-58
2023/03/10 14:20:59;;;;;;;48.80;44.97;;;;;;;;;;5092343;28;20047;-60
2023/03/10 14:23:26;;;;;;;47.63;43.92;;;;;;;;;;5078955;28;20040;-61
2023/03/10 14:25:53;;;;;;;46.85;43.15;;;;;;;;;;5074004;28;20105;-60
2023/03/10 14:28:27;;;;;;;45.55;41.95;;;;;;;;;;5073842;28;20047;-57